sensor_id;sensor_type;location;lat;lon;timestamp;temperature;humidity
46562;DHT22;32289;42.688;23.330;2023-02-01T00:01:08;0.90;99.90
46562;DHT22;32289;42.688;23.330;2023-02-01T00:04:48;0.90;99.90
46562;DHT22;32289;42.688;23.330;2023-02-01T00:08:29;1.00;99.90
46562;DHT22;32289;42.688;23.330;2023-02-01T00:12:10;0.90;99.90
46562;DHT22;32289;42.688;23.330;2023-02-01T00:15:51;0.90;99.90
46562;DHT22;32289;42.688;23.330;2023-02-01T00:19:31;1.00;99.90
46562;DHT22;32289;42.688;23.330;2023-02-01T00:23:12;0.90;99.90
46562;DHT22;32289;42.688;23.330;2023-02-01T00:26:53;0.90;99.90
46562;DHT22;32289;42.688;23.330;2023-02-01T00:30:33;0.90;99.90
46562;DHT22;32289;42.688;23.330;2023-02-01T00:34:16;0.80;99.90
46562;DHT22;32289;42.688;23.330;2023-02-01T00:37:57;0.90;99.90
46562;DHT22;32289;42.688;23.330;2023-02-01T00:41:39;0.90;99.90
46562;DHT22;32289;42.688;23.330;2023-02-01T00:45:20;0.90;99.90
46562;DHT22;32289;42.688;23.330;2023-02-01T00:49:01;0.80;99.90
46562;DHT22;32289;42.688;23.330;2023-02-01T00:52:42;0.80;99.90
46562;DHT22;32289;42.688;23.330;2023-02-01T00:56:22;0.80;99.90
46562;DHT22;32289;42.688;23.330;2023-02-01T01:00:03;0.80;99.90
46562;DHT22;32289;42.688;23.330;2023-02-01T01:03:46;0.80;99.90
46562;DHT22;32289;42.688;23.330;2023-02-01T01:07:28;0.80;99.90
46562;DHT22;32289;42.688;23.330;2023-02-01T01:11:14;0.90;99.90
46562;DHT22;32289;42.688;23.330;2023-02-01T01:14:55;0.90;99.90
46562;DHT22;32289;42.688;23.330;2023-02-01T01:18:36;0.80;99.90
46562;DHT22;32289;42.688;23.330;2023-02-01T01:22:17;0.80;99.90
46562;DHT22;32289;42.688;23.330;2023-02-01T01:26:04;0.80;99.90
46562;DHT22;32289;42.688;23.330;2023-02-01T01:29:45;0.90;99.90
46562;DHT22;32289;42.688;23.330;2023-02-01T01:33:26;0.80;99.90
46562;DHT22;32289;42.688;23.330;2023-02-01T01:37:07;0.70;99.90
46562;DHT22;32289;42.688;23.330;2023-02-01T01:40:47;0.70;99.90
46562;DHT22;32289;42.688;23.330;2023-02-01T01:48:38;0.50;99.90
46562;DHT22;32289;42.688;23.330;2023-02-01T01:52:19;0.50;99.90
46562;DHT22;32289;42.688;23.330;2023-02-01T01:56:00;0.40;99.90
46562;DHT22;32289;42.688;23.330;2023-02-01T01:59:45;0.30;99.90
46562;DHT22;32289;42.688;23.330;2023-02-01T02:07:25;0.20;99.90
46562;DHT22;32289;42.688;23.330;2023-02-01T02:11:07;0.10;99.90
46562;DHT22;32289;42.688;23.330;2023-02-01T02:14:48;0.10;99.90
46562;DHT22;32289;42.688;23.330;2023-02-01T02:38:30;0.00;99.90
46562;DHT22;32289;42.688;23.330;2023-02-01T02:46:25;0.20;99.90
46562;DHT22;32289;42.688;23.330;2023-02-01T02:54:46;0.20;99.90
46562;DHT22;32289;42.688;23.330;2023-02-01T02:58:27;0.20;99.90
46562;DHT22;32289;42.688;23.330;2023-02-01T03:02:27;0.20;99.90
46562;DHT22;32289;42.688;23.330;2023-02-01T03:06:26;0.20;99.90
46562;DHT22;32289;42.688;23.330;2023-02-01T03:10:16;0.20;99.90
46562;DHT22;32289;42.688;23.330;2023-02-01T03:14:00;0.20;99.90
46562;DHT22;32289;42.688;23.330;2023-02-01T03:17:45;0.30;99.90
46562;DHT22;32289;42.688;23.330;2023-02-01T03:21:43;0.30;99.90
46562;DHT22;32289;42.688;23.330;2023-02-01T03:25:31;0.30;99.90
46562;DHT22;32289;42.688;23.330;2023-02-01T03:29:16;0.30;99.90
46562;DHT22;32289;42.688;23.330;2023-02-01T03:33:00;0.20;99.90
46562;DHT22;32289;42.688;23.330;2023-02-01T03:36:54;0.20;99.90
46562;DHT22;32289;42.688;23.330;2023-02-01T03:40:37;0.20;99.90
46562;DHT22;32289;42.688;23.330;2023-02-01T03:48:06;0.30;99.90
46562;DHT22;32289;42.688;23.330;2023-02-01T03:51:48;0.30;99.90
46562;DHT22;32289;42.688;23.330;2023-02-01T03:55:31;0.20;99.90
46562;DHT22;32289;42.688;23.330;2023-02-01T03:59:13;0.20;99.90
46562;DHT22;32289;42.688;23.330;2023-02-01T04:02:54;0.10;99.90
46562;DHT22;32289;42.688;23.330;2023-02-01T04:06:35;0.20;99.90
46562;DHT22;32289;42.688;23.330;2023-02-01T04:10:16;0.20;99.90
46562;DHT22;32289;42.688;23.330;2023-02-01T04:13:57;0.30;99.90
46562;DHT22;32289;42.688;23.330;2023-02-01T04:17:37;0.40;99.90
46562;DHT22;32289;42.688;23.330;2023-02-01T04:21:18;0.40;99.90
46562;DHT22;32289;42.688;23.330;2023-02-01T04:24:59;0.50;99.90
46562;DHT22;32289;42.688;23.330;2023-02-01T04:28:40;0.50;99.90
46562;DHT22;32289;42.688;23.330;2023-02-01T04:32:20;0.60;99.90
46562;DHT22;32289;42.688;23.330;2023-02-01T04:36:01;0.70;99.90
46562;DHT22;32289;42.688;23.330;2023-02-01T04:39:42;0.70;99.90
46562;DHT22;32289;42.688;23.330;2023-02-01T04:43:22;0.70;99.90
46562;DHT22;32289;42.688;23.330;2023-02-01T04:47:03;0.70;99.90
46562;DHT22;32289;42.688;23.330;2023-02-01T04:50:45;0.70;99.90
46562;DHT22;32289;42.688;23.330;2023-02-01T04:54:27;0.80;99.90
46562;DHT22;32289;42.688;23.330;2023-02-01T04:58:09;0.80;99.90
46562;DHT22;32289;42.688;23.330;2023-02-01T05:01:49;0.80;99.90
46562;DHT22;32289;42.688;23.330;2023-02-01T05:05:30;0.80;99.90
46562;DHT22;32289;42.688;23.330;2023-02-01T05:09:11;0.80;99.90
46562;DHT22;32289;42.688;23.330;2023-02-01T05:12:52;0.80;99.90
46562;DHT22;32289;42.688;23.330;2023-02-01T05:16:51;0.80;99.90
46562;DHT22;32289;42.688;23.330;2023-02-01T05:20:32;0.80;99.90
46562;DHT22;32289;42.688;23.330;2023-02-01T05:24:12;0.90;99.90
46562;DHT22;32289;42.688;23.330;2023-02-01T05:27:54;0.80;99.90
46562;DHT22;32289;42.688;23.330;2023-02-01T05:31:35;0.90;99.90
46562;DHT22;32289;42.688;23.330;2023-02-01T05:35:16;1.00;99.90
46562;DHT22;32289;42.688;23.330;2023-02-01T05:38:57;1.00;99.90
46562;DHT22;32289;42.688;23.330;2023-02-01T05:42:37;1.10;99.90
46562;DHT22;32289;42.688;23.330;2023-02-01T05:46:18;1.10;99.90
46562;DHT22;32289;42.688;23.330;2023-02-01T05:49:59;1.10;99.90
46562;DHT22;32289;42.688;23.330;2023-02-01T05:53:39;1.10;99.90
46562;DHT22;32289;42.688;23.330;2023-02-01T05:57:20;1.20;99.90
46562;DHT22;32289;42.688;23.330;2023-02-01T06:01:02;1.20;99.90
46562;DHT22;32289;42.688;23.330;2023-02-01T06:04:43;1.30;99.90
46562;DHT22;32289;42.688;23.330;2023-02-01T06:08:24;1.40;99.90
46562;DHT22;32289;42.688;23.330;2023-02-01T06:12:07;1.50;99.90
46562;DHT22;32289;42.688;23.330;2023-02-01T06:15:47;1.50;99.90
46562;DHT22;32289;42.688;23.330;2023-02-01T06:19:28;1.50;99.90
46562;DHT22;32289;42.688;23.330;2023-02-01T06:23:09;1.60;99.80
46562;DHT22;32289;42.688;23.330;2023-02-01T06:26:49;1.50;99.80
46562;DHT22;32289;42.688;23.330;2023-02-01T06:30:30;1.60;99.70
46562;DHT22;32289;42.688;23.330;2023-02-01T06:34:11;1.70;99.40
46562;DHT22;32289;42.688;23.330;2023-02-01T06:37:51;1.70;98.80
46562;DHT22;32289;42.688;23.330;2023-02-01T06:41:32;1.80;98.70
46562;DHT22;32289;42.688;23.330;2023-02-01T06:45:15;1.80;98.40
46562;DHT22;32289;42.688;23.330;2023-02-01T06:48:55;1.90;98.10
46562;DHT22;32289;42.688;23.330;2023-02-01T06:52:36;1.90;97.80
46562;DHT22;32289;42.688;23.330;2023-02-01T06:56:17;1.90;97.60
46562;DHT22;32289;42.688;23.330;2023-02-01T06:59:58;1.90;97.20
46562;DHT22;32289;42.688;23.330;2023-02-01T07:03:39;2.00;97.10
46562;DHT22;32289;42.688;23.330;2023-02-01T07:07:20;2.00;97.10
46562;DHT22;32289;42.688;23.330;2023-02-01T07:11:04;2.00;96.80
46562;DHT22;32289;42.688;23.330;2023-02-01T07:14:45;2.10;96.90
46562;DHT22;32289;42.688;23.330;2023-02-01T07:18:27;2.10;96.20
46562;DHT22;32289;42.688;23.330;2023-02-01T07:22:09;2.10;96.10
46562;DHT22;32289;42.688;23.330;2023-02-01T07:25:53;2.10;95.70
46562;DHT22;32289;42.688;23.330;2023-02-01T07:29:34;2.20;95.70
46562;DHT22;32289;42.688;23.330;2023-02-01T07:33:14;2.30;95.60
46562;DHT22;32289;42.688;23.330;2023-02-01T07:36:55;2.30;94.80
46562;DHT22;32289;42.688;23.330;2023-02-01T07:40:36;2.30;94.50
46562;DHT22;32289;42.688;23.330;2023-02-01T07:44:17;2.30;94.70
46562;DHT22;32289;42.688;23.330;2023-02-01T07:48:03;2.30;94.40
46562;DHT22;32289;42.688;23.330;2023-02-01T07:51:44;2.40;94.50
46562;DHT22;32289;42.688;23.330;2023-02-01T07:55:25;2.50;94.10
46562;DHT22;32289;42.688;23.330;2023-02-01T07:59:06;2.50;93.80
46562;DHT22;32289;42.688;23.330;2023-02-01T08:02:48;2.50;93.90
46562;DHT22;32289;42.688;23.330;2023-02-01T08:06:31;2.50;93.70
46562;DHT22;32289;42.688;23.330;2023-02-01T08:10:11;2.60;93.40
46562;DHT22;32289;42.688;23.330;2023-02-01T08:13:53;2.60;92.70
46562;DHT22;32289;42.688;23.330;2023-02-01T08:17:33;2.60;92.90
46562;DHT22;32289;42.688;23.330;2023-02-01T08:21:20;2.70;92.40
46562;DHT22;32289;42.688;23.330;2023-02-01T08:25:02;2.80;92.00
46562;DHT22;32289;42.688;23.330;2023-02-01T08:28:46;3.00;91.60
46562;DHT22;32289;42.688;23.330;2023-02-01T08:32:27;2.90;91.40
46562;DHT22;32289;42.688;23.330;2023-02-01T08:36:09;3.00;91.00
46562;DHT22;32289;42.688;23.330;2023-02-01T08:39:50;3.10;90.90
46562;DHT22;32289;42.688;23.330;2023-02-01T08:43:32;3.10;90.50
46562;DHT22;32289;42.688;23.330;2023-02-01T08:47:13;3.20;89.90
46562;DHT22;32289;42.688;23.330;2023-02-01T08:50:53;3.50;89.70
46562;DHT22;32289;42.688;23.330;2023-02-01T08:54:34;3.80;87.40
46562;DHT22;32289;42.688;23.330;2023-02-01T08:58:15;3.90;85.00
46562;DHT22;32289;42.688;23.330;2023-02-01T09:01:57;4.00;84.60
46562;DHT22;32289;42.688;23.330;2023-02-01T09:05:38;3.70;83.60
46562;DHT22;32289;42.688;23.330;2023-02-01T09:09:19;3.80;84.30
46562;DHT22;32289;42.688;23.330;2023-02-01T09:13:00;3.80;83.20
46562;DHT22;32289;42.688;23.330;2023-02-01T09:16:41;3.70;83.30
46562;DHT22;32289;42.688;23.330;2023-02-01T09:20:21;4.00;83.60
46562;DHT22;32289;42.688;23.330;2023-02-01T09:24:04;4.10;82.80
46562;DHT22;32289;42.688;23.330;2023-02-01T09:27:45;4.00;82.20
46562;DHT22;32289;42.688;23.330;2023-02-01T09:31:26;4.10;81.70
46562;DHT22;32289;42.688;23.330;2023-02-01T09:35:07;4.30;81.60
46562;DHT22;32289;42.688;23.330;2023-02-01T09:38:47;4.30;80.40
46562;DHT22;32289;42.688;23.330;2023-02-01T09:46:34;4.00;81.80
46562;DHT22;32289;42.688;23.330;2023-02-01T09:50:20;4.10;81.80
46562;DHT22;32289;42.688;23.330;2023-02-01T09:54:20;4.10;82.20
46562;DHT22;32289;42.688;23.330;2023-02-01T09:58:38;4.20;81.10
46562;DHT22;32289;42.688;23.330;2023-02-01T10:02:23;4.40;79.50
46562;DHT22;32289;42.688;23.330;2023-02-01T10:06:33;4.80;78.90
46562;DHT22;32289;42.688;23.330;2023-02-01T10:10:30;4.80;77.70
46562;DHT22;32289;42.688;23.330;2023-02-01T10:18:16;6.40;70.50
46562;DHT22;32289;42.688;23.330;2023-02-01T10:22:04;7.00;69.60
46562;DHT22;32289;42.688;23.330;2023-02-01T10:29:58;7.10;66.40
46562;DHT22;32289;42.688;23.330;2023-02-01T10:33:45;6.90;66.70
46562;DHT22;32289;42.688;23.330;2023-02-01T10:37:33;7.40;64.50
46562;DHT22;32289;42.688;23.330;2023-02-01T10:41:20;7.90;63.60
46562;DHT22;32289;42.688;23.330;2023-02-01T10:45:03;8.60;61.20
46562;DHT22;32289;42.688;23.330;2023-02-01T10:48:45;8.60;60.50
46562;DHT22;32289;42.688;23.330;2023-02-01T10:52:42;9.10;59.60
46562;DHT22;32289;42.688;23.330;2023-02-01T10:56:26;9.70;59.50
46562;DHT22;32289;42.688;23.330;2023-02-01T11:00:20;8.30;59.60
46562;DHT22;32289;42.688;23.330;2023-02-01T11:04:05;8.50;60.30
46562;DHT22;32289;42.688;23.330;2023-02-01T11:07:51;8.70;59.40
46562;DHT22;32289;42.688;23.330;2023-02-01T11:15:27;8.10;60.50
46562;DHT22;32289;42.688;23.330;2023-02-01T11:19:16;8.10;61.30
46562;DHT22;32289;42.688;23.330;2023-02-01T11:22:58;8.50;59.60
46562;DHT22;32289;42.688;23.330;2023-02-01T11:26:42;9.40;57.80
46562;DHT22;32289;42.688;23.330;2023-02-01T11:30:33;8.90;58.40
46562;DHT22;32289;42.688;23.330;2023-02-01T11:34:17;8.70;58.20
46562;DHT22;32289;42.688;23.330;2023-02-01T11:37:59;8.40;58.90
46562;DHT22;32289;42.688;23.330;2023-02-01T11:41:43;8.30;58.70
46562;DHT22;32289;42.688;23.330;2023-02-01T11:45:31;8.50;59.30
46562;DHT22;32289;42.688;23.330;2023-02-01T11:49:25;8.80;58.90
46562;DHT22;32289;42.688;23.330;2023-02-01T11:56:59;8.40;59.40
46562;DHT22;32289;42.688;23.330;2023-02-01T12:01:02;8.50;59.00
46562;DHT22;32289;42.688;23.330;2023-02-01T12:05:04;8.50;59.10
46562;DHT22;32289;42.688;23.330;2023-02-01T12:33:09;8.20;60.50
46562;DHT22;32289;42.688;23.330;2023-02-01T12:36:59;8.10;60.00
46562;DHT22;32289;42.688;23.330;2023-02-01T12:41:03;8.10;61.10
46562;DHT22;32289;42.688;23.330;2023-02-01T12:45:02;7.80;61.10
46562;DHT22;32289;42.688;23.330;2023-02-01T12:52:48;8.00;60.30
46562;DHT22;32289;42.688;23.330;2023-02-01T12:56:37;7.70;60.60
46562;DHT22;32289;42.688;23.330;2023-02-01T13:00:30;8.20;60.70
46562;DHT22;32289;42.688;23.330;2023-02-01T13:04:29;8.00;60.00
46562;DHT22;32289;42.688;23.330;2023-02-01T13:08:16;8.00;59.00
46562;DHT22;32289;42.688;23.330;2023-02-01T13:12:04;7.70;60.10
46562;DHT22;32289;42.688;23.330;2023-02-01T13:19:54;7.90;59.00
46562;DHT22;32289;42.688;23.330;2023-02-01T13:23:38;7.50;60.40
46562;DHT22;32289;42.688;23.330;2023-02-01T13:27:20;7.10;60.70
46562;DHT22;32289;42.688;23.330;2023-02-01T13:43:22;6.70;62.00
46562;DHT22;32289;42.688;23.330;2023-02-01T13:51:36;6.70;61.90
46562;DHT22;32289;42.688;23.330;2023-02-01T13:59:54;7.20;61.10
46562;DHT22;32289;42.688;23.330;2023-02-01T14:03:55;7.20;61.00
46562;DHT22;32289;42.688;23.330;2023-02-01T14:07:36;6.80;61.00
46562;DHT22;32289;42.688;23.330;2023-02-01T14:11:42;6.90;62.20
46562;DHT22;32289;42.688;23.330;2023-02-01T14:15:27;7.20;62.40
46562;DHT22;32289;42.688;23.330;2023-02-01T14:19:22;6.90;61.70
46562;DHT22;32289;42.688;23.330;2023-02-01T14:23:04;7.00;62.00
46562;DHT22;32289;42.688;23.330;2023-02-01T14:26:54;7.00;62.00
46562;DHT22;32289;42.688;23.330;2023-02-01T14:30:36;6.60;62.60
46562;DHT22;32289;42.688;23.330;2023-02-01T14:38:26;6.60;63.10
46562;DHT22;32289;42.688;23.330;2023-02-01T14:50:44;6.40;64.20
46562;DHT22;32289;42.688;23.330;2023-02-01T14:54:27;6.30;65.10
46562;DHT22;32289;42.688;23.330;2023-02-01T14:58:46;6.20;65.50
46562;DHT22;32289;42.688;23.330;2023-02-01T15:02:33;6.00;65.50
46562;DHT22;32289;42.688;23.330;2023-02-01T15:10:08;5.80;66.20
46562;DHT22;32289;42.688;23.330;2023-02-01T15:13:51;5.70;67.00
46562;DHT22;32289;42.688;23.330;2023-02-01T15:17:34;5.60;67.20
46562;DHT22;32289;42.688;23.330;2023-02-01T15:21:22;5.70;67.90
46562;DHT22;32289;42.688;23.330;2023-02-01T15:25:04;5.50;68.30
46562;DHT22;32289;42.688;23.330;2023-02-01T15:28:44;5.50;68.50
46562;DHT22;32289;42.688;23.330;2023-02-01T15:32:43;5.50;68.40
46562;DHT22;32289;42.688;23.330;2023-02-01T15:36:24;5.40;68.40
46562;DHT22;32289;42.688;23.330;2023-02-01T15:47:35;5.20;68.30
46562;DHT22;32289;42.688;23.330;2023-02-01T15:51:18;5.20;68.40
46562;DHT22;32289;42.688;23.330;2023-02-01T15:55:02;5.20;68.60
46562;DHT22;32289;42.688;23.330;2023-02-01T15:58:50;5.20;68.00
46562;DHT22;32289;42.688;23.330;2023-02-01T16:02:35;5.20;67.60
46562;DHT22;32289;42.688;23.330;2023-02-01T16:10:17;5.20;68.40
46562;DHT22;32289;42.688;23.330;2023-02-01T16:14:00;5.10;68.00
46562;DHT22;32289;42.688;23.330;2023-02-01T16:17:41;5.10;68.20
46562;DHT22;32289;42.688;23.330;2023-02-01T16:21:24;5.20;69.60
46562;DHT22;32289;42.688;23.330;2023-02-01T16:25:05;5.20;68.50
46562;DHT22;32289;42.688;23.330;2023-02-01T16:28:46;5.20;69.80
46562;DHT22;32289;42.688;23.330;2023-02-01T16:32:27;5.10;68.90
46562;DHT22;32289;42.688;23.330;2023-02-01T16:36:10;5.10;68.70
46562;DHT22;32289;42.688;23.330;2023-02-01T16:39:51;5.00;68.90
46562;DHT22;32289;42.688;23.330;2023-02-01T16:43:34;5.00;69.20
46562;DHT22;32289;42.688;23.330;2023-02-01T16:47:17;5.00;69.20
46562;DHT22;32289;42.688;23.330;2023-02-01T16:51:04;4.90;69.10
46562;DHT22;32289;42.688;23.330;2023-02-01T16:54:49;4.90;68.80
46562;DHT22;32289;42.688;23.330;2023-02-01T16:58:31;4.90;69.00
46562;DHT22;32289;42.688;23.330;2023-02-01T17:02:14;4.90;69.00
46562;DHT22;32289;42.688;23.330;2023-02-01T17:05:56;4.90;68.80
46562;DHT22;32289;42.688;23.330;2023-02-01T17:09:39;4.80;69.30
46562;DHT22;32289;42.688;23.330;2023-02-01T17:13:20;4.80;69.80
46562;DHT22;32289;42.688;23.330;2023-02-01T17:17:01;4.70;69.80
46562;DHT22;32289;42.688;23.330;2023-02-01T17:20:42;4.70;69.90
46562;DHT22;32289;42.688;23.330;2023-02-01T17:24:25;4.70;70.00
46562;DHT22;32289;42.688;23.330;2023-02-01T17:28:07;4.70;70.20
46562;DHT22;32289;42.688;23.330;2023-02-01T17:31:50;4.60;71.00
46562;DHT22;32289;42.688;23.330;2023-02-01T17:35:31;4.70;70.00
46562;DHT22;32289;42.688;23.330;2023-02-01T17:39:12;4.80;69.30
46562;DHT22;32289;42.688;23.330;2023-02-01T17:43:20;4.90;68.50
46562;DHT22;32289;42.688;23.330;2023-02-01T17:47:01;4.80;69.20
46562;DHT22;32289;42.688;23.330;2023-02-01T17:50:42;4.70;69.80
46562;DHT22;32289;42.688;23.330;2023-02-01T17:54:23;4.70;68.60
46562;DHT22;32289;42.688;23.330;2023-02-01T17:58:05;4.70;69.50
46562;DHT22;32289;42.688;23.330;2023-02-01T18:01:46;4.80;68.70
46562;DHT22;32289;42.688;23.330;2023-02-01T18:05:41;4.80;68.10
46562;DHT22;32289;42.688;23.330;2023-02-01T18:09:23;4.80;69.00
46562;DHT22;32289;42.688;23.330;2023-02-01T18:13:03;4.70;68.90
46562;DHT22;32289;42.688;23.330;2023-02-01T18:16:44;4.50;69.30
46562;DHT22;32289;42.688;23.330;2023-02-01T18:20:26;4.50;69.80
46562;DHT22;32289;42.688;23.330;2023-02-01T18:24:14;4.50;70.30
46562;DHT22;32289;42.688;23.330;2023-02-01T18:27:56;4.50;69.80
46562;DHT22;32289;42.688;23.330;2023-02-01T18:31:43;4.50;69.90
46562;DHT22;32289;42.688;23.330;2023-02-01T18:35:28;4.10;72.90
46562;DHT22;32289;42.688;23.330;2023-02-01T18:39:09;3.70;76.10
46562;DHT22;32289;42.688;23.330;2023-02-01T18:42:51;3.50;78.20
46562;DHT22;32289;42.688;23.330;2023-02-01T18:46:31;3.50;79.60
46562;DHT22;32289;42.688;23.330;2023-02-01T18:50:16;3.30;81.20
46562;DHT22;32289;42.688;23.330;2023-02-01T18:53:57;3.30;81.50
46562;DHT22;32289;42.688;23.330;2023-02-01T18:57:38;3.30;82.30
46562;DHT22;32289;42.688;23.330;2023-02-01T19:01:20;2.90;84.40
46562;DHT22;32289;42.688;23.330;2023-02-01T19:05:01;2.50;87.80
46562;DHT22;32289;42.688;23.330;2023-02-01T19:08:46;2.80;88.70
46562;DHT22;32289;42.688;23.330;2023-02-01T19:12:27;2.70;88.90
46562;DHT22;32289;42.688;23.330;2023-02-01T19:16:10;2.70;89.60
46562;DHT22;32289;42.688;23.330;2023-02-01T19:19:51;2.70;90.20
46562;DHT22;32289;42.688;23.330;2023-02-01T19:23:32;2.80;89.00
46562;DHT22;32289;42.688;23.330;2023-02-01T19:27:12;2.70;89.90
46562;DHT22;32289;42.688;23.330;2023-02-01T19:31:01;2.80;90.10
46562;DHT22;32289;42.688;23.330;2023-02-01T19:34:42;2.90;89.00
46562;DHT22;32289;42.688;23.330;2023-02-01T19:38:23;3.00;86.80
46562;DHT22;32289;42.688;23.330;2023-02-01T19:42:04;3.40;82.30
46562;DHT22;32289;42.688;23.330;2023-02-01T19:45:45;3.60;83.00
46562;DHT22;32289;42.688;23.330;2023-02-01T19:49:25;3.30;83.90
46562;DHT22;32289;42.688;23.330;2023-02-01T19:53:06;3.20;84.70
46562;DHT22;32289;42.688;23.330;2023-02-01T19:56:47;3.30;85.60
46562;DHT22;32289;42.688;23.330;2023-02-01T20:00:31;2.90;85.90
46562;DHT22;32289;42.688;23.330;2023-02-01T20:04:16;2.50;89.30
46562;DHT22;32289;42.688;23.330;2023-02-01T20:07:57;2.70;89.60
46562;DHT22;32289;42.688;23.330;2023-02-01T20:11:38;2.70;89.60
46562;DHT22;32289;42.688;23.330;2023-02-01T20:15:19;2.80;89.20
46562;DHT22;32289;42.688;23.330;2023-02-01T20:19:02;2.80;90.30
46562;DHT22;32289;42.688;23.330;2023-02-01T20:22:43;2.50;90.50
46562;DHT22;32289;42.688;23.330;2023-02-01T20:26:25;2.40;92.00
46562;DHT22;32289;42.688;23.330;2023-02-01T20:30:06;2.50;91.20
46562;DHT22;32289;42.688;23.330;2023-02-01T20:33:47;2.50;91.50
46562;DHT22;32289;42.688;23.330;2023-02-01T20:37:28;2.70;91.80
46562;DHT22;32289;42.688;23.330;2023-02-01T20:41:08;2.60;91.90
46562;DHT22;32289;42.688;23.330;2023-02-01T20:44:49;2.30;92.00
46562;DHT22;32289;42.688;23.330;2023-02-01T20:48:30;2.40;92.50
46562;DHT22;32289;42.688;23.330;2023-02-01T20:52:12;2.30;92.60
46562;DHT22;32289;42.688;23.330;2023-02-01T20:55:54;2.40;92.00
46562;DHT22;32289;42.688;23.330;2023-02-01T20:59:35;2.50;92.80
46562;DHT22;32289;42.688;23.330;2023-02-01T21:03:16;2.40;92.40
46562;DHT22;32289;42.688;23.330;2023-02-01T21:06:57;2.50;92.60
46562;DHT22;32289;42.688;23.330;2023-02-01T21:10:39;2.70;92.50
46562;DHT22;32289;42.688;23.330;2023-02-01T21:14:20;2.50;92.20
46562;DHT22;32289;42.688;23.330;2023-02-01T21:18:02;2.40;92.60
46562;DHT22;32289;42.688;23.330;2023-02-01T21:21:43;2.30;93.00
46562;DHT22;32289;42.688;23.330;2023-02-01T21:25:24;2.40;92.70
46562;DHT22;32289;42.688;23.330;2023-02-01T21:29:05;2.50;92.60
46562;DHT22;32289;42.688;23.330;2023-02-01T21:32:46;2.70;92.20
46562;DHT22;32289;42.688;23.330;2023-02-01T21:36:29;2.60;92.00
46562;DHT22;32289;42.688;23.330;2023-02-01T21:40:16;2.70;91.80
46562;DHT22;32289;42.688;23.330;2023-02-01T21:43:56;2.80;92.10
46562;DHT22;32289;42.688;23.330;2023-02-01T21:47:37;2.80;92.50
46562;DHT22;32289;42.688;23.330;2023-02-01T21:51:18;2.90;91.90
46562;DHT22;32289;42.688;23.330;2023-02-01T21:54:59;3.00;90.70
46562;DHT22;32289;42.688;23.330;2023-02-01T21:58:39;2.90;91.40
46562;DHT22;32289;42.688;23.330;2023-02-01T22:02:21;3.00;91.30
46562;DHT22;32289;42.688;23.330;2023-02-01T22:06:02;3.10;91.10
46562;DHT22;32289;42.688;23.330;2023-02-01T22:09:43;3.10;91.20
46562;DHT22;32289;42.688;23.330;2023-02-01T22:13:23;3.10;90.70
46562;DHT22;32289;42.688;23.330;2023-02-01T22:17:04;3.10;90.90
46562;DHT22;32289;42.688;23.330;2023-02-01T22:20:45;3.00;90.90
46562;DHT22;32289;42.688;23.330;2023-02-01T22:24:26;2.90;91.30
46562;DHT22;32289;42.688;23.330;2023-02-01T22:28:06;3.10;90.90
46562;DHT22;32289;42.688;23.330;2023-02-01T22:31:48;3.20;90.20
46562;DHT22;32289;42.688;23.330;2023-02-01T22:35:28;3.20;90.50
46562;DHT22;32289;42.688;23.330;2023-02-01T22:39:10;3.10;91.50
46562;DHT22;32289;42.688;23.330;2023-02-01T22:42:50;3.20;91.20
46562;DHT22;32289;42.688;23.330;2023-02-01T22:46:31;3.10;90.90
46562;DHT22;32289;42.688;23.330;2023-02-01T22:50:12;3.20;91.20
46562;DHT22;32289;42.688;23.330;2023-02-01T22:53:53;3.20;91.10
46562;DHT22;32289;42.688;23.330;2023-02-01T22:57:37;3.20;90.60
46562;DHT22;32289;42.688;23.330;2023-02-01T23:01:18;3.20;90.80
46562;DHT22;32289;42.688;23.330;2023-02-01T23:04:59;3.20;90.50
46562;DHT22;32289;42.688;23.330;2023-02-01T23:08:40;3.30;89.50
46562;DHT22;32289;42.688;23.330;2023-02-01T23:12:20;4.00;81.60
46562;DHT22;32289;42.688;23.330;2023-02-01T23:16:12;4.30;78.50
46562;DHT22;32289;42.688;23.330;2023-02-01T23:19:53;4.40;77.50
46562;DHT22;32289;42.688;23.330;2023-02-01T23:23:34;4.50;75.70
46562;DHT22;32289;42.688;23.330;2023-02-01T23:27:16;4.70;75.10
46562;DHT22;32289;42.688;23.330;2023-02-01T23:31:04;4.70;74.60
46562;DHT22;32289;42.688;23.330;2023-02-01T23:34:45;4.70;74.20
46562;DHT22;32289;42.688;23.330;2023-02-01T23:38:26;4.60;74.00
46562;DHT22;32289;42.688;23.330;2023-02-01T23:42:10;4.70;73.70
46562;DHT22;32289;42.688;23.330;2023-02-01T23:45:56;4.80;71.80
46562;DHT22;32289;42.688;23.330;2023-02-01T23:49:38;4.60;74.30
46562;DHT22;32289;42.688;23.330;2023-02-01T23:53:19;4.50;75.20
46562;DHT22;32289;42.688;23.330;2023-02-01T23:56:59;4.30;76.40
